General Aviation Weather

Text Reports

Enter one or more of the following location identifiers separated by a space:

Zip Code, Four-Character ICAO or Three-Character IATA airport codes.

METAR - Aviation Routine Weather Report
SBSC - Santa Cruz,
Updated at 3:00 AM GMT on August 01, 2014 (12:00 AM BRT):
METAR SBSC 010300Z 03002KT CAVOK 16/15 Q1020
TAF - Terminal Area Forecast
SBSC - Santa Cruz,
Updated at 3:00 AM GMT on August 01, 2014 (12:00 AM BRT):
No TAF is currently available for this location.
Decoded:
No decoded TAF is available.
PIREP - Pilot Weather Report
SBSC - Santa Cruz,
Updated at 3:00 AM GMT on August 01, 2014 (12:00 AM BRT):
No PIREP is currently available for this location.
AIRMET - Airmens Meteorological Information
SBSC - Santa Cruz,
Updated at 3:00 AM GMT on August 01, 2014 (12:00 AM BRT):
No AIRMET is currently available for this location.
SIGMET - Significant Meteorological Information
SBSC - Santa Cruz,
Updated at 3:00 AM GMT on August 01, 2014 (12:00 AM BRT):
No SIGMET is currently available for this location.
NOTAM - Notice to Airmen
SBSC - Santa Cruz,
Updated at 3:00 AM GMT on August 01, 2014 (12:00 AM BRT):
No NOTAM is currently available for this location.
Forecast Area
SBSC - Santa Cruz,
Updated at 3:00 AM GMT on August 01, 2014 (12:00 AM BRT):
No NOTAM is currently available for this location.
Aviation Weather Maps